createdAt,value
2023-03-08T00:02:21.493Z,9.65
2023-03-08T00:05:10.295Z,9.85
2023-03-08T00:08:01.989Z,9.10
2023-03-08T00:10:46.944Z,8.70
2023-03-08T00:13:31.463Z,9.52
2023-03-08T00:16:08.600Z,9.43
2023-03-08T00:18:43.023Z,9.90
2023-03-08T00:21:29.184Z,8.93
2023-03-08T00:24:09.803Z,9.85
2023-03-08T00:26:52.111Z,11.25
2023-03-08T00:29:30.477Z,9.80
2023-03-08T00:32:20.715Z,10.18
2023-03-08T00:35:04.165Z,10.02
2023-03-08T00:37:47.526Z,9.88
2023-03-08T00:40:31.886Z,9.35
2023-03-08T00:43:21.807Z,8.85
2023-03-08T00:46:12.920Z,9.10
2023-03-08T00:48:50.112Z,8.95
2023-03-08T00:51:27.481Z,8.50
2023-03-08T00:53:54.468Z,9.45
2023-03-08T00:56:21.059Z,9.00
2023-03-08T00:58:47.742Z,9.45
2023-03-08T01:01:17.165Z,10.00
2023-03-08T01:03:43.909Z,9.90
2023-03-08T01:06:14.045Z,8.40
2023-03-08T01:08:42.120Z,9.43
2023-03-08T01:11:19.506Z,8.88
2023-03-08T01:13:46.628Z,9.60
2023-03-08T01:16:16.577Z,8.80
2023-03-08T01:18:43.235Z,9.30
2023-03-08T01:21:11.040Z,9.30
2023-03-08T01:23:37.625Z,10.13
2023-03-08T01:26:07.000Z,9.73
2023-03-08T01:28:42.097Z,9.98
2023-03-08T01:31:13.458Z,9.23
2023-03-08T01:33:40.928Z,10.25
2023-03-08T01:36:10.495Z,10.60
2023-03-08T01:38:37.864Z,10.15
2023-03-08T01:41:06.158Z,10.18
2023-03-08T01:43:35.759Z,10.93
2023-03-08T01:46:18.134Z,11.43
2023-03-08T01:48:47.694Z,10.20
2023-03-08T01:51:17.956Z,10.93
2023-03-08T01:53:44.821Z,10.65
2023-03-08T01:56:15.456Z,11.35
2023-03-08T01:58:45.325Z,10.70
2023-03-08T02:01:12.147Z,11.40
2023-03-08T02:03:38.882Z,12.32
2023-03-08T02:06:06.424Z,11.98
2023-03-08T02:08:33.295Z,12.35
2023-03-08T02:11:01.339Z,11.18
2023-03-08T02:13:28.246Z,11.88
2023-03-08T02:15:56.962Z,12.60
2023-03-08T02:18:23.676Z,12.05
2023-03-08T02:20:50.329Z,11.60
2023-03-08T02:23:20.794Z,12.23
2023-03-08T02:25:54.845Z,11.77
2023-03-08T02:28:23.264Z,12.48
2023-03-08T02:30:50.922Z,12.35
2023-03-08T02:33:18.815Z,11.68
2023-03-08T02:35:46.149Z,12.45
2023-03-08T02:38:14.778Z,12.55
2023-03-08T02:40:41.542Z,13.95
2023-03-08T02:43:08.564Z,12.38
2023-03-08T02:45:35.562Z,12.93
2023-03-08T02:48:04.065Z,12.85
2023-03-08T02:50:31.759Z,12.48
2023-03-08T02:52:59.308Z,12.45
2023-03-08T02:55:26.013Z,11.60
2023-03-08T02:57:52.638Z,11.65
2023-03-08T03:00:19.394Z,12.38
2023-03-08T03:02:46.018Z,12.40
2023-03-08T03:05:13.317Z,11.93
2023-03-08T03:07:41.920Z,12.15
2023-03-08T03:10:10.906Z,11.80
2023-03-08T03:12:37.606Z,11.75
2023-03-08T03:15:06.222Z,11.57
2023-03-08T03:17:33.197Z,11.88
2023-03-08T03:19:59.833Z,11.98
2023-03-08T03:22:26.419Z,11.73
2023-03-08T03:24:53.010Z,11.65
2023-03-08T03:27:19.831Z,11.60
2023-03-08T03:29:46.406Z,11.77
2023-03-08T03:32:13.071Z,11.15
2023-03-08T03:34:39.933Z,11.48
2023-03-08T03:37:06.620Z,12.00
2023-03-08T03:39:39.094Z,12.10
2023-03-08T03:42:07.150Z,11.45
2023-03-08T03:44:33.852Z,11.50
2023-03-08T03:47:00.986Z,12.40
2023-03-08T03:49:27.718Z,11.38
2023-03-08T03:51:54.309Z,11.57
2023-03-08T03:54:20.901Z,11.70
2023-03-08T03:56:47.805Z,11.02
2023-03-08T03:59:14.490Z,11.88
2023-03-08T04:01:41.054Z,12.35
2023-03-08T04:04:07.663Z,11.75
2023-03-08T04:06:34.766Z,12.45
2023-03-08T04:09:04.321Z,12.05
2023-03-08T04:11:35.351Z,11.90
2023-03-08T04:14:02.195Z,12.15
2023-03-08T04:16:31.797Z,11.70
2023-03-08T04:19:00.950Z,12.02
2023-03-08T04:21:28.336Z,12.48
2023-03-08T04:23:55.918Z,12.18
2023-03-08T04:26:23.394Z,12.30
2023-03-08T04:28:50.469Z,12.13
2023-03-08T04:31:20.054Z,11.43
2023-03-08T04:33:47.855Z,11.95
2023-03-08T04:36:15.771Z,11.73
2023-03-08T04:38:42.841Z,11.88
2023-03-08T04:41:13.195Z,11.38
2023-03-08T04:43:50.141Z,12.32
2023-03-08T04:46:22.093Z,11.63
2023-03-08T04:48:54.117Z,11.25
2023-03-08T04:51:22.737Z,10.98
2023-03-08T04:53:49.386Z,11.45
2023-03-08T04:56:17.302Z,11.57
2023-03-08T04:58:44.764Z,10.80
2023-03-08T05:01:12.347Z,11.15
2023-03-08T05:03:38.996Z,13.18
2023-03-08T05:06:06.187Z,12.52
2023-03-08T05:08:32.808Z,13.00
2023-03-08T05:11:01.455Z,12.73
2023-03-08T05:13:31.762Z,11.95
2023-03-08T05:15:58.811Z,11.75
2023-03-08T05:18:25.616Z,12.05
2023-03-08T05:21:01.949Z,13.77
2023-03-08T05:23:29.736Z,12.30
2023-03-08T05:25:58.648Z,13.75
2023-03-08T05:28:27.786Z,16.25
2023-03-08T05:31:14.316Z,15.95
2023-03-08T05:33:41.767Z,13.70
2023-03-08T05:36:09.033Z,13.02
2023-03-08T05:38:35.707Z,12.35
2023-03-08T05:41:04.793Z,12.00
2023-03-08T05:43:31.680Z,11.77
2023-03-08T05:46:03.044Z,11.98
2023-03-08T05:48:30.802Z,11.60
2023-03-08T05:50:58.625Z,13.15
2023-03-08T05:53:25.797Z,12.55
2023-03-08T05:55:52.561Z,13.07
2023-03-08T05:58:19.285Z,12.77
2023-03-08T06:00:45.832Z,13.55
2023-03-08T06:03:12.509Z,12.75
2023-03-08T06:05:39.120Z,12.77
2023-03-08T06:08:05.959Z,13.57
2023-03-08T06:10:32.514Z,12.65
2023-03-08T06:12:59.101Z,13.40
2023-03-08T06:15:25.718Z,12.73
2023-03-08T06:17:53.874Z,13.48
2023-03-08T06:20:20.980Z,14.05
2023-03-08T06:22:47.952Z,17.30
2023-03-08T06:25:14.821Z,16.85
2023-03-08T06:27:41.375Z,15.98
2023-03-08T06:30:08.661Z,16.40
2023-03-08T06:32:37.542Z,17.60
2023-03-08T06:35:04.717Z,17.70
2023-03-08T06:37:34.231Z,16.52
2023-03-08T06:40:01.919Z,17.30
2023-03-08T06:42:40.560Z,17.33
2023-03-08T06:45:09.247Z,15.38
2023-03-08T06:47:35.815Z,14.30
2023-03-08T06:50:02.414Z,14.80
2023-03-08T06:52:34.936Z,14.73
2023-03-08T06:55:01.564Z,13.82
2023-03-08T06:57:28.126Z,15.50
2023-03-08T06:59:54.701Z,21.00
2023-03-08T07:02:21.329Z,20.73
2023-03-08T07:04:49.603Z,19.30
2023-03-08T07:07:16.587Z,15.82
2023-03-08T07:09:43.313Z,15.52
2023-03-08T07:12:10.000Z,13.93
2023-03-08T07:14:36.648Z,15.23
2023-03-08T07:17:03.259Z,15.02
2023-03-08T07:19:31.149Z,14.52
2023-03-08T07:21:57.735Z,14.70
2023-03-08T07:24:24.320Z,14.88
2023-03-08T07:26:50.905Z,14.18
2023-03-08T07:29:17.636Z,14.70
2023-03-08T07:31:44.294Z,13.93
2023-03-08T07:34:10.981Z,13.45
2023-03-08T07:36:39.831Z,13.75
2023-03-08T07:39:06.455Z,15.15
2023-03-08T07:41:34.715Z,14.50
2023-03-08T07:44:02.575Z,13.50
2023-03-08T07:46:30.010Z,13.52
2023-03-08T07:48:56.894Z,13.82
2023-03-08T07:51:23.664Z,14.65
2023-03-08T07:53:51.519Z,13.38
2023-03-08T07:56:18.267Z,12.90
2023-03-08T07:58:44.977Z,13.40
2023-03-08T08:01:13.187Z,12.88
2023-03-08T08:03:40.173Z,12.50
2023-03-08T08:06:07.540Z,14.15
2023-03-08T08:08:34.312Z,12.82
2023-03-08T08:11:01.201Z,12.88
2023-03-08T08:13:27.792Z,12.25
2023-03-08T08:16:02.690Z,12.82
2023-03-08T08:18:29.364Z,12.43
2023-03-08T08:21:05.208Z,12.10
2023-03-08T08:23:32.983Z,12.15
2023-03-08T08:25:59.885Z,12.88
2023-03-08T08:28:27.575Z,12.32
2023-03-08T08:30:57.257Z,11.93
2023-03-08T08:33:23.845Z,12.57
2023-03-08T08:35:50.579Z,11.70
2023-03-08T08:38:17.205Z,10.63
2023-03-08T08:40:43.819Z,10.60
2023-03-08T08:43:10.479Z,10.75
2023-03-08T08:45:37.219Z,10.95
2023-03-08T08:48:07.082Z,11.25
2023-03-08T08:50:33.722Z,10.55
2023-03-08T08:53:00.318Z,11.95
2023-03-08T08:55:26.959Z,10.80
2023-03-08T08:57:53.601Z,11.15
2023-03-08T09:00:20.365Z,11.93
2023-03-08T09:02:47.015Z,11.45
2023-03-08T09:05:13.642Z,11.52
2023-03-08T09:07:40.268Z,12.20
2023-03-08T09:10:07.961Z,11.30
2023-03-08T09:12:34.804Z,10.98
2023-03-08T09:15:01.641Z,11.18
2023-03-08T09:17:28.263Z,10.95
2023-03-08T09:19:54.880Z,10.63
2023-03-08T09:22:21.550Z,10.05
2023-03-08T09:24:49.414Z,10.30
2023-03-08T09:27:16.173Z,10.77
2023-03-08T09:29:42.805Z,10.02
2023-03-08T09:32:09.611Z,9.45
2023-03-08T09:34:36.298Z,8.18
2023-03-08T09:37:03.605Z,8.93
2023-03-08T09:39:30.175Z,8.80
2023-03-08T09:41:59.886Z,9.55
2023-03-08T09:44:51.943Z,8.02
2023-03-08T09:47:42.575Z,8.13
2023-03-08T09:50:19.824Z,7.50
2023-03-08T09:53:00.140Z,7.25
2023-03-08T09:55:31.880Z,8.50
2023-03-08T09:58:04.941Z,7.07
2023-03-08T10:00:34.932Z,8.13
2023-03-08T10:03:11.606Z,8.70
2023-03-08T10:05:53.473Z,7.90
2023-03-08T10:08:26.335Z,7.75
2023-03-08T10:11:04.245Z,8.55
2023-03-08T10:13:41.656Z,7.97
2023-03-08T10:16:25.419Z,8.63
2023-03-08T10:19:22.461Z,7.72
2023-03-08T10:21:51.360Z,7.97
2023-03-08T10:24:31.482Z,7.72
2023-03-08T10:27:14.677Z,8.20
2023-03-08T10:29:48.651Z,8.18
2023-03-08T10:32:15.379Z,8.18
2023-03-08T10:34:41.951Z,7.75
2023-03-08T10:37:09.902Z,8.07
2023-03-08T10:39:37.804Z,7.75
2023-03-08T10:42:15.633Z,9.13
2023-03-08T10:44:59.394Z,7.55
2023-03-08T10:47:30.270Z,7.93
2023-03-08T10:50:15.581Z,7.57
2023-03-08T10:52:44.219Z,7.38
2023-03-08T10:55:16.555Z,7.80
2023-03-08T10:57:54.002Z,7.90
2023-03-08T11:00:20.884Z,8.45
2023-03-08T11:02:48.371Z,8.10
2023-03-08T11:05:22.121Z,7.70
2023-03-08T11:07:53.210Z,9.27
2023-03-08T11:10:24.251Z,8.88
2023-03-08T11:13:16.995Z,8.88
2023-03-08T11:15:51.760Z,8.88
2023-03-08T11:18:34.716Z,8.88
2023-03-08T11:21:13.790Z,9.25
2023-03-08T11:23:51.721Z,8.88
2023-03-08T11:26:49.605Z,8.23
2023-03-08T11:29:29.703Z,8.90
2023-03-08T11:32:01.218Z,8.95
2023-03-08T11:34:42.811Z,9.00
2023-03-08T11:37:21.963Z,8.85
2023-03-08T11:40:08.858Z,8.43
2023-03-08T11:45:35.471Z,8.18
2023-03-08T11:48:23.127Z,7.82
2023-03-08T11:50:53.210Z,8.10
2023-03-08T11:53:43.839Z,8.82
2023-03-08T11:56:17.973Z,7.50
2023-03-08T11:59:10.525Z,7.70
2023-03-08T12:01:45.308Z,7.95
2023-03-08T12:04:18.567Z,8.05
2023-03-08T12:06:47.258Z,8.43
2023-03-08T12:09:29.386Z,8.02
2023-03-08T12:12:02.973Z,8.45
2023-03-08T12:14:33.776Z,9.13
2023-03-08T12:17:06.441Z,8.40
2023-03-08T12:19:49.836Z,7.90
2023-03-08T12:22:33.646Z,9.27
2023-03-08T12:25:06.712Z,9.07
2023-03-08T12:27:44.501Z,8.93
2023-03-08T12:30:11.105Z,9.95
2023-03-08T12:32:39.457Z,9.27
2023-03-08T12:35:24.651Z,9.75
2023-03-08T12:38:26.348Z,9.05
2023-03-08T12:40:55.131Z,9.43
2023-03-08T12:43:21.734Z,9.23
2023-03-08T12:46:02.217Z,9.13
2023-03-08T12:48:37.668Z,8.35
2023-03-08T12:51:21.931Z,9.03
2023-03-08T12:53:49.133Z,9.18
2023-03-08T12:56:29.888Z,8.80
2023-03-08T12:59:02.397Z,8.65
2023-03-08T13:01:30.943Z,9.05
2023-03-08T13:03:57.582Z,9.18
2023-03-08T13:06:24.435Z,8.20
2023-03-08T13:08:58.128Z,7.93
2023-03-08T13:11:37.276Z,8.57
2023-03-08T13:14:05.955Z,8.20
2023-03-08T13:16:36.804Z,8.05
2023-03-08T13:19:13.780Z,8.63
2023-03-08T13:22:04.632Z,8.35
2023-03-08T13:24:50.665Z,8.63
2023-03-08T13:27:30.138Z,9.00
2023-03-08T13:30:08.967Z,8.43
2023-03-08T13:32:35.770Z,7.57
2023-03-08T13:35:04.898Z,8.65
2023-03-08T13:37:32.274Z,7.60
2023-03-08T13:40:00.110Z,7.85
2023-03-08T13:42:29.068Z,8.15
2023-03-08T13:45:10.146Z,8.48
2023-03-08T13:47:39.196Z,8.43
2023-03-08T13:50:06.555Z,9.07
2023-03-08T13:52:36.907Z,8.32
2023-03-08T13:55:07.352Z,8.57
2023-03-08T13:57:37.409Z,9.48
2023-03-08T14:00:19.395Z,9.30
2023-03-08T14:02:47.161Z,7.65
2023-03-08T14:05:18.256Z,8.02
2023-03-08T14:07:56.707Z,8.75
2023-03-08T14:10:30.144Z,9.27
2023-03-08T14:12:57.029Z,8.27
2023-03-08T14:15:23.706Z,8.15
2023-03-08T14:17:51.435Z,9.07
2023-03-08T14:20:22.029Z,9.00
2023-03-08T14:22:53.005Z,9.32
2023-03-08T14:25:24.120Z,9.63
2023-03-08T14:27:51.016Z,9.40
2023-03-08T14:30:24.113Z,9.10
2023-03-08T14:33:18.890Z,9.18
2023-03-08T14:35:55.493Z,9.23
2023-03-08T14:38:27.264Z,8.48
2023-03-08T14:40:55.076Z,8.88
2023-03-08T14:43:25.282Z,9.18
2023-03-08T14:45:58.362Z,8.60
2023-03-08T14:48:29.513Z,9.07
2023-03-08T14:51:06.813Z,9.70
2023-03-08T14:53:33.473Z,9.30
2023-03-08T14:56:02.366Z,9.15
2023-03-08T14:58:34.487Z,9.20
2023-03-08T15:01:02.381Z,10.45
2023-03-08T15:03:31.738Z,8.52
2023-03-08T15:06:01.503Z,9.82
2023-03-08T15:08:28.126Z,9.45
2023-03-08T15:10:54.760Z,9.27
2023-03-08T15:13:23.394Z,9.55
2023-03-08T15:15:50.769Z,8.07
2023-03-08T15:18:17.556Z,8.77
2023-03-08T15:20:49.362Z,9.57
2023-03-08T15:23:29.332Z,9.20
2023-03-08T15:25:57.217Z,9.48
2023-03-08T15:28:24.193Z,10.32
2023-03-08T15:30:54.593Z,9.32
2023-03-08T15:33:22.563Z,8.68
2023-03-08T15:35:50.148Z,9.70
2023-03-08T15:38:18.243Z,10.05
2023-03-08T15:40:44.846Z,9.30
2023-03-08T15:43:11.625Z,10.40
2023-03-08T15:45:38.191Z,9.75
2023-03-08T15:48:07.973Z,9.93
2023-03-08T15:50:36.087Z,8.85
2023-03-08T15:53:03.665Z,8.80
2023-03-08T15:55:32.025Z,8.77
2023-03-08T15:57:58.809Z,8.90
2023-03-08T16:00:26.280Z,8.98
2023-03-08T16:02:53.756Z,9.60
2023-03-08T16:05:23.435Z,9.95
2023-03-08T16:07:59.856Z,8.85
2023-03-08T16:12:53.792Z,9.60
2023-03-08T16:15:20.513Z,9.43
2023-03-08T16:17:47.671Z,9.93
2023-03-08T16:20:15.964Z,9.55
2023-03-08T16:22:42.929Z,10.23
2023-03-08T16:25:10.223Z,11.57
2023-03-08T16:27:38.304Z,10.25
2023-03-08T16:30:06.196Z,10.70
2023-03-08T16:32:33.619Z,10.27
2023-03-08T16:35:01.222Z,10.10
2023-03-08T16:37:28.213Z,11.10
2023-03-08T16:39:55.148Z,11.75
2023-03-08T16:42:22.705Z,12.63
2023-03-08T16:44:52.075Z,12.07
2023-03-08T16:47:20.249Z,12.48
2023-03-08T16:49:50.092Z,11.27
2023-03-08T16:52:17.939Z,11.48
2023-03-08T16:54:45.174Z,11.63
2023-03-08T16:57:18.953Z,13.05
2023-03-08T16:59:47.759Z,13.33
2023-03-08T17:02:18.432Z,12.32
2023-03-08T17:04:46.454Z,12.05
2023-03-08T17:07:13.568Z,12.68
2023-03-08T17:09:40.404Z,11.50
2023-03-08T17:12:08.533Z,12.27
2023-03-08T17:14:35.900Z,12.48
2023-03-08T17:17:03.425Z,12.95
2023-03-08T17:19:30.057Z,14.10
2023-03-08T17:21:56.717Z,12.20
2023-03-08T17:24:23.450Z,12.38
2023-03-08T17:26:52.876Z,13.98
2023-03-08T17:29:20.273Z,16.92
2023-03-08T17:31:47.248Z,17.30
2023-03-08T17:34:14.104Z,20.85
2023-03-08T17:36:40.937Z,15.38
2023-03-08T17:39:07.844Z,13.05
2023-03-08T17:41:34.581Z,12.68
2023-03-08T17:44:01.429Z,12.23
2023-03-08T17:46:28.260Z,12.93
2023-03-08T17:48:55.918Z,13.15
2023-03-08T17:51:25.796Z,12.18
2023-03-08T17:53:53.408Z,12.80
2023-03-08T17:56:25.224Z,12.85
2023-03-08T17:58:52.828Z,12.27
2023-03-08T18:01:22.094Z,11.48
2023-03-08T18:03:49.041Z,12.93
2023-03-08T18:06:25.620Z,11.77
2023-03-08T18:08:52.597Z,12.88
2023-03-08T18:11:19.288Z,12.73
2023-03-08T18:13:45.929Z,14.00
2023-03-08T18:16:12.702Z,14.05
2023-03-08T18:18:39.396Z,13.23
2023-03-08T18:21:13.084Z,13.38
2023-03-08T18:23:42.807Z,13.75
2023-03-08T18:26:11.478Z,12.65
2023-03-08T18:28:38.449Z,13.02
2023-03-08T18:31:23.396Z,12.48
2023-03-08T18:33:51.453Z,12.73
2023-03-08T18:36:20.508Z,13.68
2023-03-08T18:38:47.150Z,15.65
2023-03-08T18:41:16.334Z,15.60
2023-03-08T18:43:43.270Z,15.93
2023-03-08T18:46:12.709Z,18.00
2023-03-08T18:48:40.355Z,17.25
2023-03-08T18:51:07.108Z,19.15
2023-03-08T18:53:33.804Z,17.10
2023-03-08T18:56:02.333Z,18.35
2023-03-08T18:58:29.110Z,17.00
2023-03-08T19:00:58.975Z,16.48
2023-03-08T19:03:26.969Z,15.48
2023-03-08T19:05:53.630Z,15.63
2023-03-08T19:08:20.628Z,14.15
2023-03-08T19:10:47.198Z,15.63
2023-03-08T19:13:13.903Z,19.77
2023-03-08T19:15:40.651Z,16.70
2023-03-08T19:18:07.357Z,15.50
2023-03-08T19:20:38.550Z,14.70
2023-03-08T19:23:05.157Z,14.82
2023-03-08T19:25:33.237Z,15.25
2023-03-08T19:28:00.108Z,15.98
2023-03-08T19:30:28.425Z,14.68
2023-03-08T19:32:56.172Z,14.55
2023-03-08T19:35:23.304Z,13.15
2023-03-08T19:37:50.047Z,13.43
2023-03-08T19:40:17.276Z,13.02
2023-03-08T19:42:43.908Z,12.80
2023-03-08T19:45:11.399Z,14.68
2023-03-08T19:47:37.985Z,15.25
2023-03-08T19:50:04.778Z,15.60
2023-03-08T19:52:31.421Z,15.13
2023-03-08T19:54:58.746Z,15.10
2023-03-08T19:57:25.340Z,14.65
2023-03-08T19:59:52.066Z,13.85
2023-03-08T20:02:18.665Z,15.80
2023-03-08T20:04:45.304Z,15.20
2023-03-08T20:07:12.061Z,17.80
2023-03-08T20:09:41.167Z,17.33
2023-03-08T20:12:07.800Z,19.15
2023-03-08T20:14:35.147Z,17.30
2023-03-08T20:17:04.601Z,16.90
2023-03-08T20:19:32.762Z,16.58
2023-03-08T20:21:59.666Z,17.95
2023-03-08T20:24:26.246Z,16.30
2023-03-08T20:26:52.877Z,18.48
2023-03-08T20:29:19.505Z,21.00
2023-03-08T20:31:48.165Z,19.83
2023-03-08T20:34:16.283Z,17.98
2023-03-08T20:36:43.509Z,17.58
2023-03-08T20:39:10.861Z,18.75
2023-03-08T20:41:37.480Z,17.60
2023-03-08T20:44:04.185Z,19.50
2023-03-08T20:46:33.746Z,16.52
2023-03-08T20:49:01.323Z,14.55
2023-03-08T20:51:31.923Z,14.13
2023-03-08T20:54:01.776Z,14.77
2023-03-08T20:56:28.774Z,13.95
2023-03-08T20:58:57.434Z,12.75
2023-03-08T21:01:27.668Z,13.15
2023-03-08T21:03:54.353Z,11.32
2023-03-08T21:06:24.112Z,10.95
2023-03-08T21:08:51.213Z,7.70
2023-03-08T21:11:18.076Z,6.63
2023-03-08T21:13:47.167Z,5.97
2023-03-08T21:16:16.240Z,5.47
2023-03-08T21:18:45.964Z,5.50
2023-03-08T21:21:27.318Z,5.10
2023-03-08T21:23:57.706Z,5.35
2023-03-08T21:26:26.150Z,4.78
2023-03-08T21:28:53.418Z,5.97
2023-03-08T21:31:20.157Z,5.18
2023-03-08T21:33:47.738Z,9.75
2023-03-08T21:36:15.167Z,10.23
2023-03-08T21:38:41.828Z,8.10
2023-03-08T21:41:17.775Z,9.48
2023-03-08T21:43:44.348Z,11.18
2023-03-08T21:46:10.988Z,10.00
2023-03-08T21:48:37.662Z,10.93
2023-03-08T21:51:05.445Z,11.48
2023-03-08T21:53:32.102Z,10.75
2023-03-08T21:55:58.974Z,10.43
2023-03-08T21:58:25.616Z,10.32
2023-03-08T22:00:52.571Z,10.52
2023-03-08T22:03:19.189Z,10.55
2023-03-08T22:05:45.893Z,11.73
2023-03-08T22:08:12.498Z,12.07
2023-03-08T22:10:39.072Z,10.18
2023-03-08T22:13:05.657Z,9.88
2023-03-08T22:15:32.277Z,5.82
2023-03-08T22:17:58.933Z,4.40
2023-03-08T22:20:27.395Z,3.50
2023-03-08T22:22:54.011Z,3.15
2023-03-08T22:25:20.614Z,3.50
2023-03-08T22:27:47.187Z,3.60
2023-03-08T22:30:14.388Z,3.67
2023-03-08T22:32:41.986Z,3.30
2023-03-08T22:35:11.079Z,3.80
2023-03-08T22:37:38.429Z,3.60
2023-03-08T22:40:06.978Z,3.40
2023-03-08T22:42:34.637Z,3.15
2023-03-08T22:45:01.231Z,3.42
2023-03-08T22:47:27.854Z,4.25
2023-03-08T22:49:54.444Z,4.25
2023-03-08T22:52:21.112Z,3.40
2023-03-08T22:54:47.784Z,3.55
2023-03-08T22:57:15.258Z,3.17
2023-03-08T22:59:43.491Z,2.78
2023-03-08T23:02:10.256Z,3.55
2023-03-08T23:04:36.972Z,4.47
2023-03-08T23:07:03.883Z,3.45
2023-03-08T23:09:30.660Z,4.38
2023-03-08T23:11:59.513Z,4.20
2023-03-08T23:14:26.109Z,3.50
2023-03-08T23:16:52.836Z,3.90
2023-03-08T23:19:21.442Z,4.03
2023-03-08T23:21:48.919Z,3.60
2023-03-08T23:24:16.462Z,4.40
2023-03-08T23:26:45.816Z,4.35
2023-03-08T23:29:13.743Z,4.55
2023-03-08T23:31:44.907Z,3.97
2023-03-08T23:34:11.832Z,4.28
2023-03-08T23:36:38.476Z,4.28
2023-03-08T23:39:05.143Z,4.65
2023-03-08T23:41:32.792Z,4.65
2023-03-08T23:44:00.971Z,4.28
2023-03-08T23:46:28.364Z,4.55
2023-03-08T23:48:57.002Z,4.13
2023-03-08T23:51:26.075Z,4.03
2023-03-08T23:53:55.030Z,3.70
2023-03-08T23:56:26.898Z,3.50
2023-03-08T23:58:55.545Z,3.65
